sensor_id;sensor_type;location;lat;lon;timestamp;pressure;altitude;pressure_sealevel;temperature;humidity
65394;BME280;52002;49.760;6.512;2024-02-14T00:00:10;100307.29;;;7.06;80.33
65394;BME280;52002;49.760;6.512;2024-02-14T00:02:48;100304.77;;;7.06;80.26
65394;BME280;52002;49.760;6.512;2024-02-14T00:05:17;100304.63;;;7.06;80.14
65394;BME280;52002;49.760;6.512;2024-02-14T00:07:42;100306.21;;;7.07;80.20
65394;BME280;52002;49.760;6.512;2024-02-14T00:10:09;100302.98;;;7.04;80.22
65394;BME280;52002;49.760;6.512;2024-02-14T00:12:35;100310.50;;;7.05;80.30
65394;BME280;52002;49.760;6.512;2024-02-14T00:15:05;100310.77;;;7.04;80.11
65394;BME280;52002;49.760;6.512;2024-02-14T00:17:34;100309.53;;;7.04;80.23
65394;BME280;52002;49.760;6.512;2024-02-14T00:20:00;100310.95;;;7.04;80.12
65394;BME280;52002;49.760;6.512;2024-02-14T00:22:26;100309.79;;;7.06;80.25
65394;BME280;52002;49.760;6.512;2024-02-14T00:24:51;100308.09;;;7.05;80.15
65394;BME280;52002;49.760;6.512;2024-02-14T00:27:17;100308.83;;;7.06;80.29
65394;BME280;52002;49.760;6.512;2024-02-14T00:29:43;100302.75;;;7.07;80.46
65394;BME280;52002;49.760;6.512;2024-02-14T00:32:11;100300.38;;;7.08;80.35
65394;BME280;52002;49.760;6.512;2024-02-14T00:34:37;100299.67;;;7.11;80.44
65394;BME280;52002;49.760;6.512;2024-02-14T00:37:02;100299.91;;;7.13;80.44
65394;BME280;52002;49.760;6.512;2024-02-14T00:39:28;100299.36;;;7.16;80.51
65394;BME280;52002;49.760;6.512;2024-02-14T00:41:54;100296.73;;;7.18;80.68
65394;BME280;52002;49.760;6.512;2024-02-14T00:44:20;100296.73;;;7.21;80.69
65394;BME280;52002;49.760;6.512;2024-02-14T00:46:45;100296.48;;;7.22;80.62
65394;BME280;52002;49.760;6.512;2024-02-14T00:49:11;100288.27;;;7.22;80.50
65394;BME280;52002;49.760;6.512;2024-02-14T00:51:37;100284.17;;;7.20;80.40
65394;BME280;52002;49.760;6.512;2024-02-14T00:54:08;100283.88;;;7.20;80.30
65394;BME280;52002;49.760;6.512;2024-02-14T00:56:34;100282.02;;;7.18;80.42
65394;BME280;52002;49.760;6.512;2024-02-14T00:59:00;100273.25;;;7.17;80.37
65394;BME280;52002;49.760;6.512;2024-02-14T01:01:26;100271.70;;;7.17;80.35
65394;BME280;52002;49.760;6.512;2024-02-14T01:03:52;100267.42;;;7.17;80.24
65394;BME280;52002;49.760;6.512;2024-02-14T01:06:17;100269.14;;;7.18;80.14
65394;BME280;52002;49.760;6.512;2024-02-14T01:08:44;100268.90;;;7.19;80.41
65394;BME280;52002;49.760;6.512;2024-02-14T01:11:09;100266.36;;;7.19;80.47
65394;BME280;52002;49.760;6.512;2024-02-14T01:13:35;100268.96;;;7.20;80.41
65394;BME280;52002;49.760;6.512;2024-02-14T01:16:02;100271.60;;;7.20;80.25
65394;BME280;52002;49.760;6.512;2024-02-14T01:18:29;100272.48;;;7.20;80.28
65394;BME280;52002;49.760;6.512;2024-02-14T01:20:54;100273.98;;;7.22;80.29
65394;BME280;52002;49.760;6.512;2024-02-14T01:23:20;100274.02;;;7.24;80.50
65394;BME280;52002;49.760;6.512;2024-02-14T01:25:45;100272.52;;;7.25;80.31
65394;BME280;52002;49.760;6.512;2024-02-14T01:28:11;100274.65;;;7.27;80.55
65394;BME280;52002;49.760;6.512;2024-02-14T01:30:36;100274.83;;;7.30;80.41
65394;BME280;52002;49.760;6.512;2024-02-14T01:33:02;100271.44;;;7.33;80.49
65394;BME280;52002;49.760;6.512;2024-02-14T01:35:30;100271.89;;;7.34;80.39
65394;BME280;52002;49.760;6.512;2024-02-14T01:37:56;100272.48;;;7.35;80.48
65394;BME280;52002;49.760;6.512;2024-02-14T01:40:22;100269.73;;;7.36;80.44
65394;BME280;52002;49.760;6.512;2024-02-14T01:42:48;100269.71;;;7.37;80.47
65394;BME280;52002;49.760;6.512;2024-02-14T01:45:14;100272.54;;;7.37;80.39
65394;BME280;52002;49.760;6.512;2024-02-14T01:47:40;100267.36;;;7.38;80.14
65394;BME280;52002;49.760;6.512;2024-02-14T01:50:07;100265.90;;;7.38;80.09
65394;BME280;52002;49.760;6.512;2024-02-14T01:52:38;100264.06;;;7.39;80.23
65394;BME280;52002;49.760;6.512;2024-02-14T01:55:07;100268.23;;;7.40;80.34
65394;BME280;52002;49.760;6.512;2024-02-14T01:57:33;100265.46;;;7.42;80.26
65394;BME280;52002;49.760;6.512;2024-02-14T02:00:00;100265.25;;;7.42;80.26
65394;BME280;52002;49.760;6.512;2024-02-14T02:02:34;100265.58;;;7.43;80.14
65394;BME280;52002;49.760;6.512;2024-02-14T02:05:02;100271.05;;;7.43;80.17
65394;BME280;52002;49.760;6.512;2024-02-14T02:07:28;100265.73;;;7.43;80.12
65394;BME280;52002;49.760;6.512;2024-02-14T02:09:53;100264.27;;;7.44;80.23
65394;BME280;52002;49.760;6.512;2024-02-14T02:12:18;100261.87;;;7.46;79.98
65394;BME280;52002;49.760;6.512;2024-02-14T02:14:44;100264.55;;;7.45;80.18
65394;BME280;52002;49.760;6.512;2024-02-14T02:17:11;100264.63;;;7.46;80.17
65394;BME280;52002;49.760;6.512;2024-02-14T02:19:36;100260.45;;;7.48;80.02
65394;BME280;52002;49.760;6.512;2024-02-14T02:22:02;100262.41;;;7.50;80.15
65394;BME280;52002;49.760;6.512;2024-02-14T02:24:27;100256.63;;;7.52;80.05
65394;BME280;52002;49.760;6.512;2024-02-14T02:26:52;100261.05;;;7.52;79.99
65394;BME280;52002;49.760;6.512;2024-02-14T02:29:18;100261.98;;;7.51;79.87
65394;BME280;52002;49.760;6.512;2024-02-14T02:31:45;100265.29;;;7.50;79.92
65394;BME280;52002;49.760;6.512;2024-02-14T02:34:11;100267.90;;;7.48;79.85
65394;BME280;52002;49.760;6.512;2024-02-14T02:36:36;100270.35;;;7.49;80.09
65394;BME280;52002;49.760;6.512;2024-02-14T02:39:03;100270.86;;;7.49;80.17
65394;BME280;52002;49.760;6.512;2024-02-14T02:41:30;100272.79;;;7.49;80.30
65394;BME280;52002;49.760;6.512;2024-02-14T02:43:59;100267.63;;;7.49;80.27
65394;BME280;52002;49.760;6.512;2024-02-14T02:46:25;100267.60;;;7.50;80.32
65394;BME280;52002;49.760;6.512;2024-02-14T02:48:51;100264.29;;;7.49;80.27
65394;BME280;52002;49.760;6.512;2024-02-14T02:51:20;100267.67;;;7.49;80.66
65394;BME280;52002;49.760;6.512;2024-02-14T02:53:46;100266.75;;;7.49;80.45
65394;BME280;52002;49.760;6.512;2024-02-14T02:56:11;100266.98;;;7.48;80.67
65394;BME280;52002;49.760;6.512;2024-02-14T02:58:38;100273.80;;;7.47;80.65
65394;BME280;52002;49.760;6.512;2024-02-14T03:01:07;100277.73;;;7.47;80.66
65394;BME280;52002;49.760;6.512;2024-02-14T03:03:33;100278.86;;;7.45;80.56
65394;BME280;52002;49.760;6.512;2024-02-14T03:05:59;100281.34;;;7.46;80.62
65394;BME280;52002;49.760;6.512;2024-02-14T03:08:25;100279.52;;;7.46;80.75
65394;BME280;52002;49.760;6.512;2024-02-14T03:10:51;100283.05;;;7.46;80.71
65394;BME280;52002;49.760;6.512;2024-02-14T03:13:17;100286.70;;;7.47;80.74
65394;BME280;52002;49.760;6.512;2024-02-14T03:15:42;100287.88;;;7.49;80.73
65394;BME280;52002;49.760;6.512;2024-02-14T03:18:11;100285.19;;;7.49;80.74
65394;BME280;52002;49.760;6.512;2024-02-14T03:20:37;100288.48;;;7.50;80.89
65394;BME280;52002;49.760;6.512;2024-02-14T03:23:02;100290.80;;;7.50;80.78
65394;BME280;52002;49.760;6.512;2024-02-14T03:25:29;100292.07;;;7.49;80.86
65394;BME280;52002;49.760;6.512;2024-02-14T03:27:54;100290.71;;;7.49;80.86
65394;BME280;52002;49.760;6.512;2024-02-14T03:30:23;100294.64;;;7.48;80.96
65394;BME280;52002;49.760;6.512;2024-02-14T03:32:50;100294.13;;;7.48;80.79
65394;BME280;52002;49.760;6.512;2024-02-14T03:35:16;100291.39;;;7.46;81.16
65394;BME280;52002;49.760;6.512;2024-02-14T03:37:42;100291.63;;;7.45;81.30
65394;BME280;52002;49.760;6.512;2024-02-14T03:40:09;100282.60;;;7.45;81.29
65394;BME280;52002;49.760;6.512;2024-02-14T03:42:35;100279.98;;;7.44;81.14
65394;BME280;52002;49.760;6.512;2024-02-14T03:45:01;100275.94;;;7.44;81.22
65394;BME280;52002;49.760;6.512;2024-02-14T03:47:34;100275.95;;;7.44;81.57
65394;BME280;52002;49.760;6.512;2024-02-14T03:50:00;100277.89;;;7.44;81.61
65394;BME280;52002;49.760;6.512;2024-02-14T03:52:27;100278.54;;;7.45;81.65
65394;BME280;52002;49.760;6.512;2024-02-14T03:54:53;100277.04;;;7.46;81.94
65394;BME280;52002;49.760;6.512;2024-02-14T03:57:19;100278.23;;;7.47;81.64
65394;BME280;52002;49.760;6.512;2024-02-14T03:59:44;100281.27;;;7.47;81.62
65394;BME280;52002;49.760;6.512;2024-02-14T04:02:10;100281.73;;;7.45;81.51
65394;BME280;52002;49.760;6.512;2024-02-14T04:04:36;100283.98;;;7.46;81.66
65394;BME280;52002;49.760;6.512;2024-02-14T04:07:03;100284.26;;;7.47;81.60
65394;BME280;52002;49.760;6.512;2024-02-14T04:09:28;100288.66;;;7.47;81.67
65394;BME280;52002;49.760;6.512;2024-02-14T04:11:54;100289.13;;;7.48;81.85
65394;BME280;52002;49.760;6.512;2024-02-14T04:14:19;100287.71;;;7.48;81.58
65394;BME280;52002;49.760;6.512;2024-02-14T04:16:44;100296.99;;;7.50;81.71
65394;BME280;52002;49.760;6.512;2024-02-14T04:19:11;100301.90;;;7.51;81.54
65394;BME280;52002;49.760;6.512;2024-02-14T04:21:38;100304.46;;;7.52;81.81
65394;BME280;52002;49.760;6.512;2024-02-14T04:24:04;100303.35;;;7.52;81.55
65394;BME280;52002;49.760;6.512;2024-02-14T04:26:29;100302.23;;;7.53;81.69
65394;BME280;52002;49.760;6.512;2024-02-14T04:28:55;100303.59;;;7.54;81.64
65394;BME280;52002;49.760;6.512;2024-02-14T04:31:20;100307.15;;;7.54;81.43
65394;BME280;52002;49.760;6.512;2024-02-14T04:33:45;100310.45;;;7.52;81.47
65394;BME280;52002;49.760;6.512;2024-02-14T04:36:18;100310.98;;;7.52;81.52
65394;BME280;52002;49.760;6.512;2024-02-14T04:38:44;100311.30;;;7.52;81.47
65394;BME280;52002;49.760;6.512;2024-02-14T04:41:09;100314.98;;;7.53;81.51
65394;BME280;52002;49.760;6.512;2024-02-14T04:43:35;100311.94;;;7.53;81.48
65394;BME280;52002;49.760;6.512;2024-02-14T04:46:01;100318.27;;;7.54;81.52
65394;BME280;52002;49.760;6.512;2024-02-14T04:48:26;100312.20;;;7.55;81.34
65394;BME280;52002;49.760;6.512;2024-02-14T04:50:53;100318.44;;;7.57;81.66
65394;BME280;52002;49.760;6.512;2024-02-14T04:53:18;100320.79;;;7.59;81.62
65394;BME280;52002;49.760;6.512;2024-02-14T04:55:44;100325.35;;;7.59;81.46
65394;BME280;52002;49.760;6.512;2024-02-14T04:58:10;100326.62;;;7.59;81.65
65394;BME280;52002;49.760;6.512;2024-02-14T05:00:35;100322.44;;;7.58;81.40
65394;BME280;52002;49.760;6.512;2024-02-14T05:03:01;100323.77;;;7.56;81.41
65394;BME280;52002;49.760;6.512;2024-02-14T05:05:27;100325.11;;;7.55;81.60
65394;BME280;52002;49.760;6.512;2024-02-14T05:07:53;100326.23;;;7.54;81.58
65394;BME280;52002;49.760;6.512;2024-02-14T05:10:19;100328.55;;;7.54;81.97
65394;BME280;52002;49.760;6.512;2024-02-14T05:12:44;100328.21;;;7.54;81.97
65394;BME280;52002;49.760;6.512;2024-02-14T05:15:10;100325.70;;;7.54;82.26
65394;BME280;52002;49.760;6.512;2024-02-14T05:17:37;100322.86;;;7.54;82.44
65394;BME280;52002;49.760;6.512;2024-02-14T05:20:05;100321.06;;;7.55;82.36
65394;BME280;52002;49.760;6.512;2024-02-14T05:22:36;100326.05;;;7.54;82.62
65394;BME280;52002;49.760;6.512;2024-02-14T05:25:02;100329.52;;;7.55;82.73
65394;BME280;52002;49.760;6.512;2024-02-14T05:27:27;100329.87;;;7.55;83.03
65394;BME280;52002;49.760;6.512;2024-02-14T05:29:52;100325.23;;;7.56;82.90
65394;BME280;52002;49.760;6.512;2024-02-14T05:32:18;100322.69;;;7.57;83.02
65394;BME280;52002;49.760;6.512;2024-02-14T05:34:43;100321.67;;;7.56;83.26
65394;BME280;52002;49.760;6.512;2024-02-14T05:37:09;100325.41;;;7.56;83.29
65394;BME280;52002;49.760;6.512;2024-02-14T05:39:34;100327.89;;;7.56;83.61
65394;BME280;52002;49.760;6.512;2024-02-14T05:41:59;100331.55;;;7.57;83.64
65394;BME280;52002;49.760;6.512;2024-02-14T05:44:25;100332.09;;;7.57;83.68
65394;BME280;52002;49.760;6.512;2024-02-14T05:46:53;100328.92;;;7.56;83.74
65394;BME280;52002;49.760;6.512;2024-02-14T05:49:18;100329.77;;;7.57;83.90
65394;BME280;52002;49.760;6.512;2024-02-14T05:51:43;100335.94;;;7.57;83.88
65394;BME280;52002;49.760;6.512;2024-02-14T05:54:09;100339.61;;;7.58;84.07
65394;BME280;52002;49.760;6.512;2024-02-14T05:56:34;100336.06;;;7.58;84.05
65394;BME280;52002;49.760;6.512;2024-02-14T05:59:00;100340.66;;;7.58;84.12
65394;BME280;52002;49.760;6.512;2024-02-14T06:01:25;100341.03;;;7.60;84.37
65394;BME280;52002;49.760;6.512;2024-02-14T06:03:51;100346.70;;;7.60;84.51
65394;BME280;52002;49.760;6.512;2024-02-14T06:06:16;100343.23;;;7.62;84.77
65394;BME280;52002;49.760;6.512;2024-02-14T06:08:41;100345.79;;;7.63;84.88
65394;BME280;52002;49.760;6.512;2024-02-14T06:11:07;100342.89;;;7.64;84.85
65394;BME280;52002;49.760;6.512;2024-02-14T06:13:33;100335.05;;;7.65;84.75
65394;BME280;52002;49.760;6.512;2024-02-14T06:15:59;100335.11;;;7.64;84.90
65394;BME280;52002;49.760;6.512;2024-02-14T06:18:24;100337.13;;;7.66;85.15
65394;BME280;52002;49.760;6.512;2024-02-14T06:20:49;100330.70;;;7.66;85.03
65394;BME280;52002;49.760;6.512;2024-02-14T06:23:15;100334.71;;;7.65;85.03
65394;BME280;52002;49.760;6.512;2024-02-14T06:25:40;100340.73;;;7.65;85.14
65394;BME280;52002;49.760;6.512;2024-02-14T06:28:06;100348.36;;;7.65;85.33
65394;BME280;52002;49.760;6.512;2024-02-14T06:30:31;100353.84;;;7.65;85.40
65394;BME280;52002;49.760;6.512;2024-02-14T06:32:57;100359.48;;;7.65;85.58
65394;BME280;52002;49.760;6.512;2024-02-14T06:35:26;100363.81;;;7.67;85.65
65394;BME280;52002;49.760;6.512;2024-02-14T06:37:51;100370.36;;;7.67;85.63
65394;BME280;52002;49.760;6.512;2024-02-14T06:40:17;100373.51;;;7.67;85.69
65394;BME280;52002;49.760;6.512;2024-02-14T06:42:43;100368.41;;;7.67;85.88
65394;BME280;52002;49.760;6.512;2024-02-14T06:45:08;100371.56;;;7.70;86.22
65394;BME280;52002;49.760;6.512;2024-02-14T06:47:34;100370.87;;;7.72;86.33
65394;BME280;52002;49.760;6.512;2024-02-14T06:49:59;100369.15;;;7.73;86.39
65394;BME280;52002;49.760;6.512;2024-02-14T06:52:24;100371.27;;;7.73;86.17
65394;BME280;52002;49.760;6.512;2024-02-14T06:54:50;100371.96;;;7.74;86.25
65394;BME280;52002;49.760;6.512;2024-02-14T06:57:15;100375.23;;;7.73;86.04
65394;BME280;52002;49.760;6.512;2024-02-14T06:59:41;100376.58;;;7.71;86.08
65394;BME280;52002;49.760;6.512;2024-02-14T07:02:07;100376.08;;;7.71;86.21
65394;BME280;52002;49.760;6.512;2024-02-14T07:04:33;100381.04;;;7.71;86.27
65394;BME280;52002;49.760;6.512;2024-02-14T07:06:58;100378.91;;;7.71;86.18
65394;BME280;52002;49.760;6.512;2024-02-14T07:09:24;100381.81;;;7.70;86.25
65394;BME280;52002;49.760;6.512;2024-02-14T07:11:50;100379.85;;;7.70;86.22
65394;BME280;52002;49.760;6.512;2024-02-14T07:14:19;100382.39;;;7.72;86.48
65394;BME280;52002;49.760;6.512;2024-02-14T07:16:44;100382.06;;;7.74;86.51
65394;BME280;52002;49.760;6.512;2024-02-14T07:19:10;100384.71;;;7.77;86.75
65394;BME280;52002;49.760;6.512;2024-02-14T07:21:35;100386.30;;;7.80;86.68
65394;BME280;52002;49.760;6.512;2024-02-14T07:24:04;100388.20;;;7.83;87.01
65394;BME280;52002;49.760;6.512;2024-02-14T07:26:30;100387.71;;;7.87;87.21
65394;BME280;52002;49.760;6.512;2024-02-14T07:28:56;100387.66;;;7.90;87.18
65394;BME280;52002;49.760;6.512;2024-02-14T07:31:21;100385.96;;;7.92;87.05
65394;BME280;52002;49.760;6.512;2024-02-14T07:33:46;100387.11;;;7.93;87.08
65394;BME280;52002;49.760;6.512;2024-02-14T07:36:13;100391.50;;;7.96;87.26
65394;BME280;52002;49.760;6.512;2024-02-14T07:38:39;100388.65;;;7.96;87.20
65394;BME280;52002;49.760;6.512;2024-02-14T07:41:04;100392.30;;;7.97;87.15
65394;BME280;52002;49.760;6.512;2024-02-14T07:43:30;100395.81;;;8.00;87.32
65394;BME280;52002;49.760;6.512;2024-02-14T07:45:56;100392.12;;;8.02;87.57
65394;BME280;52002;49.760;6.512;2024-02-14T07:48:21;100393.13;;;8.05;87.45
65394;BME280;52002;49.760;6.512;2024-02-14T07:50:48;100394.95;;;8.10;87.47
65394;BME280;52002;49.760;6.512;2024-02-14T07:53:13;100397.06;;;8.13;87.52
65394;BME280;52002;49.760;6.512;2024-02-14T07:55:38;100396.59;;;8.14;87.50
65394;BME280;52002;49.760;6.512;2024-02-14T07:58:05;100400.79;;;8.15;87.44
65394;BME280;52002;49.760;6.512;2024-02-14T08:00:30;100401.98;;;8.18;87.64
65394;BME280;52002;49.760;6.512;2024-02-14T08:02:56;100405.83;;;8.21;87.72
65394;BME280;52002;49.760;6.512;2024-02-14T08:05:21;100408.05;;;8.25;87.57
65394;BME280;52002;49.760;6.512;2024-02-14T08:07:47;100408.31;;;8.28;87.74
65394;BME280;52002;49.760;6.512;2024-02-14T08:10:12;100413.60;;;8.29;87.38
65394;BME280;52002;49.760;6.512;2024-02-14T08:12:38;100416.77;;;8.29;87.25
65394;BME280;52002;49.760;6.512;2024-02-14T08:15:04;100420.92;;;8.31;87.46
65394;BME280;52002;49.760;6.512;2024-02-14T08:17:31;100420.42;;;8.35;87.70
65394;BME280;52002;49.760;6.512;2024-02-14T08:19:56;100415.07;;;8.41;87.90
65394;BME280;52002;49.760;6.512;2024-02-14T08:22:22;100414.73;;;8.46;87.82
65394;BME280;52002;49.760;6.512;2024-02-14T08:24:47;100408.77;;;8.52;87.99
65394;BME280;52002;49.760;6.512;2024-02-14T08:27:13;100415.08;;;8.58;88.20
65394;BME280;52002;49.760;6.512;2024-02-14T08:29:38;100416.11;;;8.63;87.95
65394;BME280;52002;49.760;6.512;2024-02-14T08:32:04;100414.08;;;8.64;87.63
65394;BME280;52002;49.760;6.512;2024-02-14T08:34:30;100410.94;;;8.66;87.60
65394;BME280;52002;49.760;6.512;2024-02-14T08:36:55;100413.19;;;8.67;87.47
65394;BME280;52002;49.760;6.512;2024-02-14T08:39:21;100416.39;;;8.67;87.09
65394;BME280;52002;49.760;6.512;2024-02-14T08:41:46;100416.67;;;8.68;87.23
65394;BME280;52002;49.760;6.512;2024-02-14T08:44:15;100409.52;;;8.69;87.21
65394;BME280;52002;49.760;6.512;2024-02-14T08:46:40;100412.33;;;8.71;87.18
65394;BME280;52002;49.760;6.512;2024-02-14T08:49:10;100410.51;;;8.74;87.02
65394;BME280;52002;49.760;6.512;2024-02-14T08:51:35;100418.91;;;8.76;86.97
65394;BME280;52002;49.760;6.512;2024-02-14T08:54:02;100417.43;;;8.77;86.96
65394;BME280;52002;49.760;6.512;2024-02-14T08:56:31;100412.67;;;8.81;87.34
65394;BME280;52002;49.760;6.512;2024-02-14T08:59:00;100415.98;;;8.84;87.39
65394;BME280;52002;49.760;6.512;2024-02-14T09:01:26;100409.61;;;8.87;87.33
65394;BME280;52002;49.760;6.512;2024-02-14T09:03:51;100407.50;;;8.88;87.22
65394;BME280;52002;49.760;6.512;2024-02-14T09:06:17;100410.02;;;8.93;87.24
65394;BME280;52002;49.760;6.512;2024-02-14T09:08:46;100408.02;;;8.98;87.16
65394;BME280;52002;49.760;6.512;2024-02-14T09:11:11;100417.23;;;9.03;86.97
65394;BME280;52002;49.760;6.512;2024-02-14T09:13:38;100414.56;;;9.06;87.19
65394;BME280;52002;49.760;6.512;2024-02-14T09:16:06;100419.64;;;9.06;86.89
65394;BME280;52002;49.760;6.512;2024-02-14T09:18:31;100420.06;;;9.10;87.03
65394;BME280;52002;49.760;6.512;2024-02-14T09:20:57;100417.96;;;9.15;87.00
65394;BME280;52002;49.760;6.512;2024-02-14T09:23:23;100416.91;;;9.17;86.79
65394;BME280;52002;49.760;6.512;2024-02-14T09:25:49;100427.06;;;9.19;86.69
65394;BME280;52002;49.760;6.512;2024-02-14T09:28:15;100430.04;;;9.19;86.55
65394;BME280;52002;49.760;6.512;2024-02-14T09:30:41;100429.48;;;9.19;86.42
65394;BME280;52002;49.760;6.512;2024-02-14T09:33:07;100432.39;;;9.21;86.75
65394;BME280;52002;49.760;6.512;2024-02-14T09:35:32;100438.10;;;9.23;86.80
65394;BME280;52002;49.760;6.512;2024-02-14T09:37:57;100436.94;;;9.24;86.71
65394;BME280;52002;49.760;6.512;2024-02-14T09:40:23;100441.29;;;9.25;86.73
65394;BME280;52002;49.760;6.512;2024-02-14T09:42:53;100444.36;;;9.25;86.58
65394;BME280;52002;49.760;6.512;2024-02-14T09:45:26;100447.89;;;9.25;86.64
65394;BME280;52002;49.760;6.512;2024-02-14T09:47:53;100447.83;;;9.26;86.98
65394;BME280;52002;49.760;6.512;2024-02-14T09:50:19;100444.48;;;9.28;87.17
65394;BME280;52002;49.760;6.512;2024-02-14T09:52:47;100450.59;;;9.30;87.04
65394;BME280;52002;49.760;6.512;2024-02-14T09:55:14;100449.69;;;9.32;87.02
65394;BME280;52002;49.760;6.512;2024-02-14T09:57:41;100455.42;;;9.34;87.09
65394;BME280;52002;49.760;6.512;2024-02-14T10:00:09;100457.63;;;9.35;87.10
65394;BME280;52002;49.760;6.512;2024-02-14T10:02:35;100449.98;;;9.38;87.13
65394;BME280;52002;49.760;6.512;2024-02-14T10:05:01;100456.44;;;9.39;87.18
65394;BME280;52002;49.760;6.512;2024-02-14T10:07:27;100460.48;;;9.39;87.07
65394;BME280;52002;49.760;6.512;2024-02-14T10:09:52;100461.45;;;9.41;87.14
65394;BME280;52002;49.760;6.512;2024-02-14T10:12:20;100461.39;;;9.41;87.16
65394;BME280;52002;49.760;6.512;2024-02-14T10:14:45;100459.57;;;9.42;87.28
65394;BME280;52002;49.760;6.512;2024-02-14T10:17:18;100454.71;;;9.46;87.36
65394;BME280;52002;49.760;6.512;2024-02-14T10:19:54;100455.95;;;9.48;87.27
65394;BME280;52002;49.760;6.512;2024-02-14T10:22:19;100463.41;;;9.50;87.48
65394;BME280;52002;49.760;6.512;2024-02-14T10:24:46;100456.64;;;9.52;87.55
65394;BME280;52002;49.760;6.512;2024-02-14T10:27:11;100461.91;;;9.60;87.43
65394;BME280;52002;49.760;6.512;2024-02-14T10:29:37;100457.89;;;9.71;87.59
65394;BME280;52002;49.760;6.512;2024-02-14T10:32:02;100457.06;;;9.81;87.51
65394;BME280;52002;49.760;6.512;2024-02-14T10:34:29;100459.64;;;9.92;87.29
65394;BME280;52002;49.760;6.512;2024-02-14T10:36:56;100462.77;;;10.04;87.05
65394;BME280;52002;49.760;6.512;2024-02-14T10:39:25;100461.91;;;10.13;86.80
65394;BME280;52002;49.760;6.512;2024-02-14T10:41:51;100459.89;;;10.18;86.63
65394;BME280;52002;49.760;6.512;2024-02-14T10:44:16;100460.16;;;10.22;86.86
65394;BME280;52002;49.760;6.512;2024-02-14T10:46:44;100459.86;;;10.25;86.55
65394;BME280;52002;49.760;6.512;2024-02-14T10:49:11;100460.58;;;10.30;86.75
65394;BME280;52002;49.760;6.512;2024-02-14T10:51:38;100462.77;;;10.36;86.96
65394;BME280;52002;49.760;6.512;2024-02-14T10:54:11;100464.83;;;10.39;86.32
65394;BME280;52002;49.760;6.512;2024-02-14T10:56:41;100463.55;;;10.42;86.48
65394;BME280;52002;49.760;6.512;2024-02-14T10:59:10;100455.34;;;10.44;86.27
65394;BME280;52002;49.760;6.512;2024-02-14T11:01:39;100451.36;;;10.47;86.31
65394;BME280;52002;49.760;6.512;2024-02-14T11:04:06;100452.73;;;10.52;86.07
65394;BME280;52002;49.760;6.512;2024-02-14T11:06:32;100451.76;;;10.60;86.15
65394;BME280;52002;49.760;6.512;2024-02-14T11:09:01;100443.80;;;10.66;86.06
65394;BME280;52002;49.760;6.512;2024-02-14T11:11:32;100442.61;;;10.70;85.87
65394;BME280;52002;49.760;6.512;2024-02-14T11:13:57;100437.09;;;10.76;85.66
65394;BME280;52002;49.760;6.512;2024-02-14T11:16:26;100434.55;;;10.81;85.69
65394;BME280;52002;49.760;6.512;2024-02-14T11:19:13;100441.59;;;10.84;85.74
65394;BME280;52002;49.760;6.512;2024-02-14T11:21:47;100443.16;;;10.89;85.63
65394;BME280;52002;49.760;6.512;2024-02-14T11:24:14;100436.98;;;10.93;85.66
65394;BME280;52002;49.760;6.512;2024-02-14T11:26:50;100435.04;;;10.94;85.49
65394;BME280;52002;49.760;6.512;2024-02-14T11:29:20;100428.91;;;10.93;85.68
65394;BME280;52002;49.760;6.512;2024-02-14T11:31:45;100427.89;;;10.91;85.47
65394;BME280;52002;49.760;6.512;2024-02-14T11:34:13;100423.35;;;10.87;85.24
65394;BME280;52002;49.760;6.512;2024-02-14T11:36:41;100420.23;;;10.87;85.43
65394;BME280;52002;49.760;6.512;2024-02-14T11:39:07;100424.39;;;10.86;85.21
65394;BME280;52002;49.760;6.512;2024-02-14T11:41:33;100424.35;;;10.86;85.29
65394;BME280;52002;49.760;6.512;2024-02-14T11:44:03;100426.17;;;10.90;85.39
65394;BME280;52002;49.760;6.512;2024-02-14T11:46:30;100425.94;;;10.95;85.26
65394;BME280;52002;49.760;6.512;2024-02-14T11:48:56;100427.77;;;11.01;85.40
65394;BME280;52002;49.760;6.512;2024-02-14T11:51:22;100427.44;;;11.06;85.59
65394;BME280;52002;49.760;6.512;2024-02-14T11:53:48;100427.59;;;11.11;85.50
65394;BME280;52002;49.760;6.512;2024-02-14T11:56:14;100418.55;;;11.15;85.37
65394;BME280;52002;49.760;6.512;2024-02-14T11:58:40;100416.01;;;11.26;85.43
65394;BME280;52002;49.760;6.512;2024-02-14T12:01:06;100411.51;;;11.37;85.40
65394;BME280;52002;49.760;6.512;2024-02-14T12:03:32;100409.93;;;11.43;85.20
65394;BME280;52002;49.760;6.512;2024-02-14T12:05:58;100411.48;;;11.42;85.00
65394;BME280;52002;49.760;6.512;2024-02-14T12:08:23;100419.20;;;11.39;85.33
65394;BME280;52002;49.760;6.512;2024-02-14T12:10:49;100421.77;;;11.36;85.28
65394;BME280;52002;49.760;6.512;2024-02-14T12:13:16;100417.55;;;11.31;85.46
65394;BME280;52002;49.760;6.512;2024-02-14T12:15:46;100410.99;;;11.28;85.67
65394;BME280;52002;49.760;6.512;2024-02-14T12:18:12;100408.33;;;11.28;85.63
65394;BME280;52002;49.760;6.512;2024-02-14T12:20:39;100417.54;;;11.29;85.69
65394;BME280;52002;49.760;6.512;2024-02-14T12:23:05;100418.48;;;11.28;85.77
65394;BME280;52002;49.760;6.512;2024-02-14T12:25:31;100423.98;;;11.29;85.93
65394;BME280;52002;49.760;6.512;2024-02-14T12:27:58;100416.70;;;11.26;85.83
65394;BME280;52002;49.760;6.512;2024-02-14T12:30:43;100416.70;;;11.24;86.00
65394;BME280;52002;49.760;6.512;2024-02-14T12:33:15;100417.84;;;11.23;86.03
65394;BME280;52002;49.760;6.512;2024-02-14T12:35:44;100407.59;;;11.22;85.94
65394;BME280;52002;49.760;6.512;2024-02-14T12:38:11;100402.52;;;11.21;86.03
65394;BME280;52002;49.760;6.512;2024-02-14T12:40:38;100398.57;;;11.28;86.23
65394;BME280;52002;49.760;6.512;2024-02-14T12:43:07;100401.81;;;11.34;86.02
65394;BME280;52002;49.760;6.512;2024-02-14T12:45:33;100405.47;;;11.34;85.94
65394;BME280;52002;49.760;6.512;2024-02-14T12:47:58;100409.98;;;11.32;86.04
65394;BME280;52002;49.760;6.512;2024-02-14T12:50:25;100407.99;;;11.28;86.22
65394;BME280;52002;49.760;6.512;2024-02-14T12:52:51;100406.18;;;11.24;86.25